sensor_id;sensor_type;location;lat;lon;timestamp;P1;durP1;ratioP1;P2;durP2;ratioP2
21084;SDS011;34247;50.064;19.970;2022-07-25T00:00:15;1.83;;;1.52;;
21084;SDS011;34247;50.064;19.970;2022-07-25T00:01:19;1.45;;;1.33;;
21084;SDS011;34247;50.064;19.970;2022-07-25T00:02:25;1.55;;;1.30;;
21084;SDS011;34247;50.064;19.970;2022-07-25T00:03:29;1.40;;;1.30;;
21084;SDS011;34247;50.064;19.970;2022-07-25T00:04:33;0.98;;;0.98;;
21084;SDS011;34247;50.064;19.970;2022-07-25T00:05:37;1.27;;;1.17;;
21084;SDS011;34247;50.064;19.970;2022-07-25T00:06:41;1.20;;;1.10;;
21084;SDS011;34247;50.064;19.970;2022-07-25T00:07:46;1.70;;;1.40;;
21084;SDS011;34247;50.064;19.970;2022-07-25T00:08:51;2.58;;;1.25;;
21084;SDS011;34247;50.064;19.970;2022-07-25T00:09:55;1.92;;;1.50;;
21084;SDS011;34247;50.064;19.970;2022-07-25T00:10:59;2.03;;;1.52;;
21084;SDS011;34247;50.064;19.970;2022-07-25T00:12:02;0.82;;;0.80;;
21084;SDS011;34247;50.064;19.970;2022-07-25T00:13:07;1.50;;;1.40;;
21084;SDS011;34247;50.064;19.970;2022-07-25T00:14:11;1.20;;;1.08;;
21084;SDS011;34247;50.064;19.970;2022-07-25T00:15:15;1.50;;;1.40;;
21084;SDS011;34247;50.064;19.970;2022-07-25T00:16:19;2.72;;;1.40;;
21084;SDS011;34247;50.064;19.970;2022-07-25T00:17:23;1.27;;;1.17;;
21084;SDS011;34247;50.064;19.970;2022-07-25T00:18:28;2.08;;;1.40;;
21084;SDS011;34247;50.064;19.970;2022-07-25T00:19:31;1.45;;;1.35;;
21084;SDS011;34247;50.064;19.970;2022-07-25T00:20:36;1.65;;;1.17;;
21084;SDS011;34247;50.064;19.970;2022-07-25T00:21:39;1.48;;;1.20;;
21084;SDS011;34247;50.064;19.970;2022-07-25T00:22:43;1.75;;;1.42;;
21084;SDS011;34247;50.064;19.970;2022-07-25T00:23:47;1.48;;;1.38;;
21084;SDS011;34247;50.064;19.970;2022-07-25T00:24:52;1.45;;;1.17;;
21084;SDS011;34247;50.064;19.970;2022-07-25T00:25:56;9.27;;;1.40;;
21084;SDS011;34247;50.064;19.970;2022-07-25T00:27:00;1.50;;;1.33;;
21084;SDS011;34247;50.064;19.970;2022-07-25T00:28:04;2.38;;;1.45;;
21084;SDS011;34247;50.064;19.970;2022-07-25T00:29:08;1.75;;;1.10;;
21084;SDS011;34247;50.064;19.970;2022-07-25T00:30:12;0.93;;;0.93;;
21084;SDS011;34247;50.064;19.970;2022-07-25T00:31:16;1.55;;;1.17;;
21084;SDS011;34247;50.064;19.970;2022-07-25T00:32:21;2.92;;;1.48;;
21084;SDS011;34247;50.064;19.970;2022-07-25T00:33:24;1.08;;;0.95;;
21084;SDS011;34247;50.064;19.970;2022-07-25T00:34:29;1.23;;;1.13;;
21084;SDS011;34247;50.064;19.970;2022-07-25T00:35:33;1.10;;;1.00;;
21084;SDS011;34247;50.064;19.970;2022-07-25T00:36:37;3.75;;;1.33;;
21084;SDS011;34247;50.064;19.970;2022-07-25T00:37:40;3.92;;;1.67;;
21084;SDS011;34247;50.064;19.970;2022-07-25T00:38:44;1.15;;;1.05;;
21084;SDS011;34247;50.064;19.970;2022-07-25T00:39:48;3.33;;;1.17;;
21084;SDS011;34247;50.064;19.970;2022-07-25T00:40:52;1.38;;;1.27;;
21084;SDS011;34247;50.064;19.970;2022-07-25T00:42:02;2.47;;;1.05;;
21084;SDS011;34247;50.064;19.970;2022-07-25T00:43:06;1.50;;;1.17;;
21084;SDS011;34247;50.064;19.970;2022-07-25T00:44:20;3.05;;;1.13;;
21084;SDS011;34247;50.064;19.970;2022-07-25T00:45:31;6.38;;;1.85;;
21084;SDS011;34247;50.064;19.970;2022-07-25T00:46:36;1.45;;;1.35;;
21084;SDS011;34247;50.064;19.970;2022-07-25T00:47:43;2.72;;;1.30;;
21084;SDS011;34247;50.064;19.970;2022-07-25T00:48:47;1.00;;;1.00;;
21084;SDS011;34247;50.064;19.970;2022-07-25T00:49:51;1.80;;;1.40;;
21084;SDS011;34247;50.064;19.970;2022-07-25T00:50:55;1.38;;;1.00;;
21084;SDS011;34247;50.064;19.970;2022-07-25T00:51:59;4.60;;;1.20;;
21084;SDS011;34247;50.064;19.970;2022-07-25T00:53:03;1.70;;;1.42;;
21084;SDS011;34247;50.064;19.970;2022-07-25T00:54:07;1.00;;;1.00;;
21084;SDS011;34247;50.064;19.970;2022-07-25T00:55:12;1.75;;;1.25;;
21084;SDS011;34247;50.064;19.970;2022-07-25T00:56:16;0.82;;;0.82;;
21084;SDS011;34247;50.064;19.970;2022-07-25T00:57:21;1.55;;;1.45;;
21084;SDS011;34247;50.064;19.970;2022-07-25T00:58:25;1.40;;;1.30;;
21084;SDS011;34247;50.064;19.970;2022-07-25T00:59:29;1.20;;;1.10;;
21084;SDS011;34247;50.064;19.970;2022-07-25T01:00:33;1.38;;;1.27;;
21084;SDS011;34247;50.064;19.970;2022-07-25T01:01:37;1.10;;;1.10;;
21084;SDS011;34247;50.064;19.970;2022-07-25T01:02:43;2.78;;;1.10;;
21084;SDS011;34247;50.064;19.970;2022-07-25T01:03:47;1.35;;;1.25;;
21084;SDS011;34247;50.064;19.970;2022-07-25T01:04:51;1.92;;;1.60;;
21084;SDS011;34247;50.064;19.970;2022-07-25T01:05:56;1.40;;;1.20;;
21084;SDS011;34247;50.064;19.970;2022-07-25T01:07:00;2.05;;;0.90;;
21084;SDS011;34247;50.064;19.970;2022-07-25T01:08:05;1.45;;;1.13;;
21084;SDS011;34247;50.064;19.970;2022-07-25T01:09:10;1.17;;;1.05;;
21084;SDS011;34247;50.064;19.970;2022-07-25T01:10:14;2.42;;;1.50;;
21084;SDS011;34247;50.064;19.970;2022-07-25T01:11:18;2.35;;;0.82;;
21084;SDS011;34247;50.064;19.970;2022-07-25T01:12:23;1.38;;;1.27;;
21084;SDS011;34247;50.064;19.970;2022-07-25T01:13:30;0.90;;;0.90;;
21084;SDS011;34247;50.064;19.970;2022-07-25T01:14:36;4.22;;;1.45;;
21084;SDS011;34247;50.064;19.970;2022-07-25T01:15:41;2.03;;;1.25;;
21084;SDS011;34247;50.064;19.970;2022-07-25T01:16:46;2.40;;;1.05;;
21084;SDS011;34247;50.064;19.970;2022-07-25T01:17:51;1.20;;;1.10;;
21084;SDS011;34247;50.064;19.970;2022-07-25T01:18:55;2.17;;;1.15;;
21084;SDS011;34247;50.064;19.970;2022-07-25T01:19:59;0.93;;;0.93;;
21084;SDS011;34247;50.064;19.970;2022-07-25T01:21:04;2.25;;;1.13;;
21084;SDS011;34247;50.064;19.970;2022-07-25T01:22:08;0.85;;;0.85;;
21084;SDS011;34247;50.064;19.970;2022-07-25T01:23:12;1.42;;;1.05;;
21084;SDS011;34247;50.064;19.970;2022-07-25T01:24:16;0.90;;;0.90;;
21084;SDS011;34247;50.064;19.970;2022-07-25T01:25:20;1.25;;;1.15;;
21084;SDS011;34247;50.064;19.970;2022-07-25T01:26:25;2.00;;;1.48;;
21084;SDS011;34247;50.064;19.970;2022-07-25T01:27:30;0.90;;;0.82;;
21084;SDS011;34247;50.064;19.970;2022-07-25T01:28:34;0.90;;;0.90;;
21084;SDS011;34247;50.064;19.970;2022-07-25T01:29:38;1.20;;;1.10;;
21084;SDS011;34247;50.064;19.970;2022-07-25T01:30:42;1.52;;;1.40;;
21084;SDS011;34247;50.064;19.970;2022-07-25T01:31:46;1.20;;;1.10;;
21084;SDS011;34247;50.064;19.970;2022-07-25T01:32:51;1.38;;;1.25;;
21084;SDS011;34247;50.064;19.970;2022-07-25T01:33:55;1.27;;;0.98;;
21084;SDS011;34247;50.064;19.970;2022-07-25T01:34:59;1.33;;;0.82;;
21084;SDS011;34247;50.064;19.970;2022-07-25T01:36:03;0.90;;;0.90;;
21084;SDS011;34247;50.064;19.970;2022-07-25T01:37:08;1.00;;;1.00;;
21084;SDS011;34247;50.064;19.970;2022-07-25T01:38:12;1.17;;;1.10;;
21084;SDS011;34247;50.064;19.970;2022-07-25T01:39:18;2.20;;;1.20;;
21084;SDS011;34247;50.064;19.970;2022-07-25T01:40:22;3.63;;;1.58;;
21084;SDS011;34247;50.064;19.970;2022-07-25T01:41:26;0.90;;;0.90;;
21084;SDS011;34247;50.064;19.970;2022-07-25T01:42:29;2.15;;;1.23;;
21084;SDS011;34247;50.064;19.970;2022-07-25T01:43:34;3.55;;;1.27;;
21084;SDS011;34247;50.064;19.970;2022-07-25T01:44:38;0.75;;;0.75;;
21084;SDS011;34247;50.064;19.970;2022-07-25T01:45:41;1.85;;;1.00;;
21084;SDS011;34247;50.064;19.970;2022-07-25T01:46:45;2.22;;;1.13;;
21084;SDS011;34247;50.064;19.970;2022-07-25T01:47:49;1.17;;;1.15;;
21084;SDS011;34247;50.064;19.970;2022-07-25T01:48:53;1.10;;;1.00;;
21084;SDS011;34247;50.064;19.970;2022-07-25T01:49:57;1.50;;;0.95;;
21084;SDS011;34247;50.064;19.970;2022-07-25T01:51:01;1.10;;;1.00;;
21084;SDS011;34247;50.064;19.970;2022-07-25T01:52:05;0.80;;;0.80;;
21084;SDS011;34247;50.064;19.970;2022-07-25T01:53:09;1.05;;;1.05;;
21084;SDS011;34247;50.064;19.970;2022-07-25T01:54:13;1.60;;;1.02;;
21084;SDS011;34247;50.064;19.970;2022-07-25T01:55:17;1.35;;;1.20;;
21084;SDS011;34247;50.064;19.970;2022-07-25T01:56:21;1.13;;;1.02;;
21084;SDS011;34247;50.064;19.970;2022-07-25T01:57:25;1.27;;;1.00;;
21084;SDS011;34247;50.064;19.970;2022-07-25T01:58:32;1.15;;;1.05;;
21084;SDS011;34247;50.064;19.970;2022-07-25T01:59:39;2.35;;;1.40;;
21084;SDS011;34247;50.064;19.970;2022-07-25T02:00:43;1.30;;;1.17;;
21084;SDS011;34247;50.064;19.970;2022-07-25T02:01:48;0.90;;;0.90;;
21084;SDS011;34247;50.064;19.970;2022-07-25T02:02:55;1.65;;;1.55;;
21084;SDS011;34247;50.064;19.970;2022-07-25T02:04:20;1.85;;;1.25;;
21084;SDS011;34247;50.064;19.970;2022-07-25T02:05:24;0.90;;;0.90;;
21084;SDS011;34247;50.064;19.970;2022-07-25T02:06:28;1.20;;;1.10;;
21084;SDS011;34247;50.064;19.970;2022-07-25T02:07:32;1.58;;;1.13;;
21084;SDS011;34247;50.064;19.970;2022-07-25T02:08:37;0.85;;;0.85;;
21084;SDS011;34247;50.064;19.970;2022-07-25T02:09:42;1.00;;;0.95;;
21084;SDS011;34247;50.064;19.970;2022-07-25T02:10:46;3.65;;;1.25;;
21084;SDS011;34247;50.064;19.970;2022-07-25T02:11:50;3.03;;;1.70;;
21084;SDS011;34247;50.064;19.970;2022-07-25T02:12:54;1.33;;;1.20;;
21084;SDS011;34247;50.064;19.970;2022-07-25T02:13:58;1.27;;;1.17;;
21084;SDS011;34247;50.064;19.970;2022-07-25T02:15:02;0.93;;;0.82;;
21084;SDS011;34247;50.064;19.970;2022-07-25T02:16:06;5.15;;;1.55;;
21084;SDS011;34247;50.064;19.970;2022-07-25T02:17:10;1.95;;;1.23;;
21084;SDS011;34247;50.064;19.970;2022-07-25T02:18:14;1.73;;;1.20;;
21084;SDS011;34247;50.064;19.970;2022-07-25T02:19:19;1.85;;;1.50;;
21084;SDS011;34247;50.064;19.970;2022-07-25T02:20:23;1.08;;;1.02;;
21084;SDS011;34247;50.064;19.970;2022-07-25T02:21:26;1.33;;;0.80;;
21084;SDS011;34247;50.064;19.970;2022-07-25T02:22:30;1.38;;;1.27;;
21084;SDS011;34247;50.064;19.970;2022-07-25T02:23:35;1.23;;;1.02;;
21084;SDS011;34247;50.064;19.970;2022-07-25T02:24:39;1.10;;;1.05;;
21084;SDS011;34247;50.064;19.970;2022-07-25T02:25:43;2.47;;;1.48;;
21084;SDS011;34247;50.064;19.970;2022-07-25T02:26:47;1.20;;;1.10;;
21084;SDS011;34247;50.064;19.970;2022-07-25T02:27:51;2.42;;;1.77;;
21084;SDS011;34247;50.064;19.970;2022-07-25T02:28:55;1.85;;;1.10;;
21084;SDS011;34247;50.064;19.970;2022-07-25T02:29:58;1.33;;;0.90;;
21084;SDS011;34247;50.064;19.970;2022-07-25T02:31:02;1.40;;;1.30;;
21084;SDS011;34247;50.064;19.970;2022-07-25T02:32:07;1.20;;;0.98;;
21084;SDS011;34247;50.064;19.970;2022-07-25T02:33:11;1.20;;;1.02;;
21084;SDS011;34247;50.064;19.970;2022-07-25T02:34:15;1.88;;;1.27;;
21084;SDS011;34247;50.064;19.970;2022-07-25T02:35:19;1.42;;;1.20;;
21084;SDS011;34247;50.064;19.970;2022-07-25T02:36:23;1.35;;;1.25;;
21084;SDS011;34247;50.064;19.970;2022-07-25T02:37:28;1.55;;;1.25;;
21084;SDS011;34247;50.064;19.970;2022-07-25T02:38:32;1.10;;;1.00;;
21084;SDS011;34247;50.064;19.970;2022-07-25T02:39:35;1.58;;;1.48;;
21084;SDS011;34247;50.064;19.970;2022-07-25T02:40:40;1.30;;;1.20;;
21084;SDS011;34247;50.064;19.970;2022-07-25T02:41:44;1.98;;;1.73;;
21084;SDS011;34247;50.064;19.970;2022-07-25T02:42:47;4.25;;;1.10;;
21084;SDS011;34247;50.064;19.970;2022-07-25T02:43:51;1.35;;;1.25;;
21084;SDS011;34247;50.064;19.970;2022-07-25T02:44:56;1.92;;;1.83;;
21084;SDS011;34247;50.064;19.970;2022-07-25T02:46:00;1.50;;;1.40;;
21084;SDS011;34247;50.064;19.970;2022-07-25T02:47:03;1.30;;;1.10;;
21084;SDS011;34247;50.064;19.970;2022-07-25T02:48:07;0.80;;;0.80;;
21084;SDS011;34247;50.064;19.970;2022-07-25T02:49:11;1.45;;;1.17;;
21084;SDS011;34247;50.064;19.970;2022-07-25T02:50:15;1.25;;;1.15;;
21084;SDS011;34247;50.064;19.970;2022-07-25T02:51:20;1.38;;;1.30;;
21084;SDS011;34247;50.064;19.970;2022-07-25T02:52:23;1.10;;;1.05;;
21084;SDS011;34247;50.064;19.970;2022-07-25T02:53:27;3.42;;;1.45;;
21084;SDS011;34247;50.064;19.970;2022-07-25T02:54:51;1.02;;;0.93;;
21084;SDS011;34247;50.064;19.970;2022-07-25T02:55:55;2.25;;;1.17;;
21084;SDS011;34247;50.064;19.970;2022-07-25T02:57:00;1.10;;;1.00;;
21084;SDS011;34247;50.064;19.970;2022-07-25T02:58:03;1.65;;;1.20;;
21084;SDS011;34247;50.064;19.970;2022-07-25T02:59:07;1.52;;;1.00;;
21084;SDS011;34247;50.064;19.970;2022-07-25T03:00:12;1.48;;;1.38;;
21084;SDS011;34247;50.064;19.970;2022-07-25T03:01:17;4.82;;;1.23;;
21084;SDS011;34247;50.064;19.970;2022-07-25T03:02:22;0.93;;;0.93;;
21084;SDS011;34247;50.064;19.970;2022-07-25T03:03:26;4.28;;;1.65;;
21084;SDS011;34247;50.064;19.970;2022-07-25T03:04:30;1.38;;;1.27;;
21084;SDS011;34247;50.064;19.970;2022-07-25T03:05:35;1.20;;;1.10;;
21084;SDS011;34247;50.064;19.970;2022-07-25T03:06:39;1.35;;;1.25;;
21084;SDS011;34247;50.064;19.970;2022-07-25T03:07:43;1.23;;;1.13;;
21084;SDS011;34247;50.064;19.970;2022-07-25T03:08:48;1.10;;;1.00;;
21084;SDS011;34247;50.064;19.970;2022-07-25T03:09:52;1.95;;;1.38;;
21084;SDS011;34247;50.064;19.970;2022-07-25T03:10:56;1.00;;;1.00;;
21084;SDS011;34247;50.064;19.970;2022-07-25T03:12:00;3.72;;;1.10;;
21084;SDS011;34247;50.064;19.970;2022-07-25T03:13:05;1.13;;;1.08;;
21084;SDS011;34247;50.064;19.970;2022-07-25T03:14:09;1.20;;;1.10;;
21084;SDS011;34247;50.064;19.970;2022-07-25T03:15:13;1.13;;;1.02;;
21084;SDS011;34247;50.064;19.970;2022-07-25T03:16:18;1.40;;;1.27;;
21084;SDS011;34247;50.064;19.970;2022-07-25T03:17:22;1.30;;;1.23;;
21084;SDS011;34247;50.064;19.970;2022-07-25T03:18:27;1.05;;;1.05;;
21084;SDS011;34247;50.064;19.970;2022-07-25T03:19:31;1.65;;;1.27;;
21084;SDS011;34247;50.064;19.970;2022-07-25T03:20:34;6.60;;;3.45;;
21084;SDS011;34247;50.064;19.970;2022-07-25T03:21:38;6.35;;;2.58;;
21084;SDS011;34247;50.064;19.970;2022-07-25T03:22:42;3.33;;;2.33;;
21084;SDS011;34247;50.064;19.970;2022-07-25T03:23:46;2.75;;;2.45;;
21084;SDS011;34247;50.064;19.970;2022-07-25T03:24:54;4.65;;;3.67;;
21084;SDS011;34247;50.064;19.970;2022-07-25T03:25:58;4.78;;;2.83;;
21084;SDS011;34247;50.064;19.970;2022-07-25T03:27:02;2.50;;;2.13;;
21084;SDS011;34247;50.064;19.970;2022-07-25T03:28:06;3.83;;;1.98;;
21084;SDS011;34247;50.064;19.970;2022-07-25T03:29:10;1.63;;;1.52;;
21084;SDS011;34247;50.064;19.970;2022-07-25T03:30:14;1.30;;;1.20;;
21084;SDS011;34247;50.064;19.970;2022-07-25T03:31:18;1.55;;;1.45;;
21084;SDS011;34247;50.064;19.970;2022-07-25T03:32:22;1.77;;;1.40;;
21084;SDS011;34247;50.064;19.970;2022-07-25T03:33:26;1.45;;;1.17;;
21084;SDS011;34247;50.064;19.970;2022-07-25T03:34:30;1.33;;;1.23;;
21084;SDS011;34247;50.064;19.970;2022-07-25T03:35:36;1.58;;;1.30;;
21084;SDS011;34247;50.064;19.970;2022-07-25T03:36:40;3.50;;;1.40;;
21084;SDS011;34247;50.064;19.970;2022-07-25T03:37:44;1.17;;;1.17;;
21084;SDS011;34247;50.064;19.970;2022-07-25T03:38:47;1.45;;;1.35;;
21084;SDS011;34247;50.064;19.970;2022-07-25T03:39:51;0.80;;;0.80;;
21084;SDS011;34247;50.064;19.970;2022-07-25T03:40:55;2.30;;;1.40;;
21084;SDS011;34247;50.064;19.970;2022-07-25T03:41:59;1.30;;;1.20;;
21084;SDS011;34247;50.064;19.970;2022-07-25T03:43:03;0.80;;;0.80;;
21084;SDS011;34247;50.064;19.970;2022-07-25T03:44:07;0.98;;;0.95;;
21084;SDS011;34247;50.064;19.970;2022-07-25T03:45:11;1.27;;;1.17;;
21084;SDS011;34247;50.064;19.970;2022-07-25T03:46:15;1.75;;;1.30;;
21084;SDS011;34247;50.064;19.970;2022-07-25T03:47:19;1.20;;;1.10;;
21084;SDS011;34247;50.064;19.970;2022-07-25T03:48:23;2.75;;;1.25;;
21084;SDS011;34247;50.064;19.970;2022-07-25T03:49:27;1.27;;;0.93;;
21084;SDS011;34247;50.064;19.970;2022-07-25T03:50:31;1.60;;;1.40;;
21084;SDS011;34247;50.064;19.970;2022-07-25T03:51:35;1.35;;;1.20;;
21084;SDS011;34247;50.064;19.970;2022-07-25T03:52:39;3.50;;;2.00;;
21084;SDS011;34247;50.064;19.970;2022-07-25T03:53:43;2.60;;;1.65;;
21084;SDS011;34247;50.064;19.970;2022-07-25T03:55:06;4.35;;;2.13;;
21084;SDS011;34247;50.064;19.970;2022-07-25T03:56:12;1.70;;;1.50;;
21084;SDS011;34247;50.064;19.970;2022-07-25T03:57:16;1.65;;;1.52;;
21084;SDS011;34247;50.064;19.970;2022-07-25T03:58:20;1.42;;;1.33;;
21084;SDS011;34247;50.064;19.970;2022-07-25T03:59:24;3.22;;;1.92;;
21084;SDS011;34247;50.064;19.970;2022-07-25T04:00:28;1.35;;;1.25;;
21084;SDS011;34247;50.064;19.970;2022-07-25T04:01:32;1.98;;;1.58;;
21084;SDS011;34247;50.064;19.970;2022-07-25T04:02:37;1.40;;;1.30;;
21084;SDS011;34247;50.064;19.970;2022-07-25T04:03:41;2.00;;;1.38;;
21084;SDS011;34247;50.064;19.970;2022-07-25T04:04:46;2.42;;;1.60;;
21084;SDS011;34247;50.064;19.970;2022-07-25T04:05:50;2.20;;;1.80;;
21084;SDS011;34247;50.064;19.970;2022-07-25T04:06:53;1.98;;;1.77;;
21084;SDS011;34247;50.064;19.970;2022-07-25T04:07:57;1.25;;;1.15;;
21084;SDS011;34247;50.064;19.970;2022-07-25T04:09:02;1.30;;;1.20;;
21084;SDS011;34247;50.064;19.970;2022-07-25T04:10:08;2.00;;;1.50;;
21084;SDS011;34247;50.064;19.970;2022-07-25T04:11:13;2.13;;;1.50;;
21084;SDS011;34247;50.064;19.970;2022-07-25T04:12:17;1.50;;;1.40;;
21084;SDS011;34247;50.064;19.970;2022-07-25T04:13:21;1.05;;;1.05;;
21084;SDS011;34247;50.064;19.970;2022-07-25T04:14:25;3.28;;;1.38;;
21084;SDS011;34247;50.064;19.970;2022-07-25T04:15:29;1.40;;;1.30;;
21084;SDS011;34247;50.064;19.970;2022-07-25T04:16:35;1.65;;;1.55;;
21084;SDS011;34247;50.064;19.970;2022-07-25T04:17:41;1.70;;;1.60;;
21084;SDS011;34247;50.064;19.970;2022-07-25T04:18:45;1.83;;;1.35;;
21084;SDS011;34247;50.064;19.970;2022-07-25T04:19:51;1.40;;;1.30;;
21084;SDS011;34247;50.064;19.970;2022-07-25T04:20:55;1.50;;;1.33;;
21084;SDS011;34247;50.064;19.970;2022-07-25T04:21:58;1.38;;;1.10;;
21084;SDS011;34247;50.064;19.970;2022-07-25T04:23:02;1.95;;;1.55;;
21084;SDS011;34247;50.064;19.970;2022-07-25T04:24:06;1.90;;;1.30;;
21084;SDS011;34247;50.064;19.970;2022-07-25T04:25:11;1.30;;;1.25;;
21084;SDS011;34247;50.064;19.970;2022-07-25T04:26:15;1.00;;;1.00;;
21084;SDS011;34247;50.064;19.970;2022-07-25T04:27:19;4.57;;;1.27;;
21084;SDS011;34247;50.064;19.970;2022-07-25T04:28:24;1.75;;;1.55;;
21084;SDS011;34247;50.064;19.970;2022-07-25T04:29:28;1.48;;;1.38;;
21084;SDS011;34247;50.064;19.970;2022-07-25T04:30:32;3.63;;;1.40;;
21084;SDS011;34247;50.064;19.970;2022-07-25T04:31:36;1.55;;;1.30;;
21084;SDS011;34247;50.064;19.970;2022-07-25T04:32:40;2.70;;;1.52;;
21084;SDS011;34247;50.064;19.970;2022-07-25T04:33:45;4.03;;;1.70;;
21084;SDS011;34247;50.064;19.970;2022-07-25T04:34:49;1.40;;;1.30;;
21084;SDS011;34247;50.064;19.970;2022-07-25T04:35:54;5.10;;;1.60;;
21084;SDS011;34247;50.064;19.970;2022-07-25T04:36:58;2.38;;;1.55;;
21084;SDS011;34247;50.064;19.970;2022-07-25T04:38:02;1.60;;;1.20;;
21084;SDS011;34247;50.064;19.970;2022-07-25T04:39:12;1.35;;;1.20;;
21084;SDS011;34247;50.064;19.970;2022-07-25T04:40:15;1.70;;;1.30;;
21084;SDS011;34247;50.064;19.970;2022-07-25T04:41:19;3.28;;;1.77;;
21084;SDS011;34247;50.064;19.970;2022-07-25T04:42:24;2.40;;;1.60;;
21084;SDS011;34247;50.064;19.970;2022-07-25T04:43:29;1.40;;;1.30;;
21084;SDS011;34247;50.064;19.970;2022-07-25T04:44:33;2.70;;;1.63;;
21084;SDS011;34247;50.064;19.970;2022-07-25T04:45:37;1.55;;;1.45;;
21084;SDS011;34247;50.064;19.970;2022-07-25T04:46:42;3.95;;;2.30;;
21084;SDS011;34247;50.064;19.970;2022-07-25T04:47:46;4.93;;;2.08;;
21084;SDS011;34247;50.064;19.970;2022-07-25T04:48:50;2.75;;;2.53;;
21084;SDS011;34247;50.064;19.970;2022-07-25T04:49:54;4.22;;;2.20;;
21084;SDS011;34247;50.064;19.970;2022-07-25T04:50:58;4.25;;;2.38;;
21084;SDS011;34247;50.064;19.970;2022-07-25T04:52:02;5.93;;;2.40;;
21084;SDS011;34247;50.064;19.970;2022-07-25T04:53:06;7.20;;;2.58;;
21084;SDS011;34247;50.064;19.970;2022-07-25T04:54:10;3.70;;;2.13;;
21084;SDS011;34247;50.064;19.970;2022-07-25T04:55:14;2.42;;;2.08;;
21084;SDS011;34247;50.064;19.970;2022-07-25T04:56:18;5.57;;;2.67;;
21084;SDS011;34247;50.064;19.970;2022-07-25T04:57:22;2.50;;;2.00;;
21084;SDS011;34247;50.064;19.970;2022-07-25T04:58:26;2.65;;;2.42;;
21084;SDS011;34247;50.064;19.970;2022-07-25T04:59:30;6.15;;;2.65;;
21084;SDS011;34247;50.064;19.970;2022-07-25T05:00:33;4.00;;;2.33;;
21084;SDS011;34247;50.064;19.970;2022-07-25T05:01:38;3.13;;;2.70;;
21084;SDS011;34247;50.064;19.970;2022-07-25T05:02:42;5.90;;;2.55;;
21084;SDS011;34247;50.064;19.970;2022-07-25T05:03:46;2.17;;;1.85;;
21084;SDS011;34247;50.064;19.970;2022-07-25T05:04:52;4.80;;;1.60;;
21084;SDS011;34247;50.064;19.970;2022-07-25T05:05:57;3.05;;;1.90;;
21084;SDS011;34247;50.064;19.970;2022-07-25T05:07:01;5.72;;;2.58;;
21084;SDS011;34247;50.064;19.970;2022-07-25T05:08:05;3.95;;;2.33;;
21084;SDS011;34247;50.064;19.970;2022-07-25T05:09:09;2.28;;;2.03;;
21084;SDS011;34247;50.064;19.970;2022-07-25T05:10:13;4.03;;;2.40;;
21084;SDS011;34247;50.064;19.970;2022-07-25T05:11:17;3.60;;;2.58;;
21084;SDS011;34247;50.064;19.970;2022-07-25T05:12:21;5.63;;;2.65;;
21084;SDS011;34247;50.064;19.970;2022-07-25T05:13:25;3.25;;;2.72;;
21084;SDS011;34247;50.064;19.970;2022-07-25T05:14:29;4.63;;;2.33;;
21084;SDS011;34247;50.064;19.970;2022-07-25T05:15:33;3.75;;;2.75;;
21084;SDS011;34247;50.064;19.970;2022-07-25T05:16:37;6.93;;;2.72;;
21084;SDS011;34247;50.064;19.970;2022-07-25T05:17:41;3.67;;;2.17;;
21084;SDS011;34247;50.064;19.970;2022-07-25T05:18:46;4.97;;;2.55;;
21084;SDS011;34247;50.064;19.970;2022-07-25T05:19:50;4.80;;;2.40;;
21084;SDS011;34247;50.064;19.970;2022-07-25T05:20:54;2.67;;;2.30;;
21084;SDS011;34247;50.064;19.970;2022-07-25T05:21:57;6.75;;;2.63;;
21084;SDS011;34247;50.064;19.970;2022-07-25T05:23:01;3.97;;;2.63;;
21084;SDS011;34247;50.064;19.970;2022-07-25T05:24:05;5.82;;;2.90;;
21084;SDS011;34247;50.064;19.970;2022-07-25T05:25:11;3.65;;;2.85;;
21084;SDS011;34247;50.064;19.970;2022-07-25T05:26:15;6.93;;;2.97;;
21084;SDS011;34247;50.064;19.970;2022-07-25T05:27:19;4.72;;;2.67;;
21084;SDS011;34247;50.064;19.970;2022-07-25T05:28:23;5.20;;;2.63;;
21084;SDS011;34247;50.064;19.970;2022-07-25T05:29:27;5.28;;;2.80;;
21084;SDS011;34247;50.064;19.970;2022-07-25T05:30:31;5.97;;;2.70;;
21084;SDS011;34247;50.064;19.970;2022-07-25T05:31:41;5.93;;;2.85;;
21084;SDS011;34247;50.064;19.970;2022-07-25T05:32:45;4.03;;;2.25;;
21084;SDS011;34247;50.064;19.970;2022-07-25T05:33:50;4.20;;;2.83;;
21084;SDS011;34247;50.064;19.970;2022-07-25T05:34:54;4.88;;;2.58;;
21084;SDS011;34247;50.064;19.970;2022-07-25T05:35:58;3.42;;;1.98;;
21084;SDS011;34247;50.064;19.970;2022-07-25T05:37:03;5.47;;;3.00;;
21084;SDS011;34247;50.064;19.970;2022-07-25T05:38:07;4.40;;;2.42;;
21084;SDS011;34247;50.064;19.970;2022-07-25T05:39:11;3.90;;;2.25;;
21084;SDS011;34247;50.064;19.970;2022-07-25T05:40:15;4.35;;;2.53;;
21084;SDS011;34247;50.064;19.970;2022-07-25T05:41:20;5.75;;;2.72;;
21084;SDS011;34247;50.064;19.970;2022-07-25T05:42:24;3.22;;;2.90;;
21084;SDS011;34247;50.064;19.970;2022-07-25T05:43:29;5.75;;;2.47;;
21084;SDS011;34247;50.064;19.970;2022-07-25T05:44:32;4.57;;;2.80;;
21084;SDS011;34247;50.064;19.970;2022-07-25T05:45:36;5.30;;;2.70;;
21084;SDS011;34247;50.064;19.970;2022-07-25T05:46:40;3.17;;;2.55;;
21084;SDS011;34247;50.064;19.970;2022-07-25T05:47:44;3.60;;;2.53;;
21084;SDS011;34247;50.064;19.970;2022-07-25T05:48:48;4.15;;;2.65;;
21084;SDS011;34247;50.064;19.970;2022-07-25T05:49:53;3.25;;;2.50;;
21084;SDS011;34247;50.064;19.970;2022-07-25T05:50:57;5.70;;;3.20;;
21084;SDS011;34247;50.064;19.970;2022-07-25T05:52:01;4.40;;;2.65;;
21084;SDS011;34247;50.064;19.970;2022-07-25T05:53:12;4.05;;;2.53;;
21084;SDS011;34247;50.064;19.970;2022-07-25T05:54:16;4.05;;;2.63;;
21084;SDS011;34247;50.064;19.970;2022-07-25T05:55:20;5.80;;;3.00;;
21084;SDS011;34247;50.064;19.970;2022-07-25T05:56:24;4.95;;;2.67;;
21084;SDS011;34247;50.064;19.970;2022-07-25T05:57:28;6.88;;;2.92;;
21084;SDS011;34247;50.064;19.970;2022-07-25T05:58:32;4.13;;;2.80;;
21084;SDS011;34247;50.064;19.970;2022-07-25T05:59:37;5.43;;;2.65;;
21084;SDS011;34247;50.064;19.970;2022-07-25T06:00:41;5.18;;;2.63;;
21084;SDS011;34247;50.064;19.970;2022-07-25T06:01:45;8.65;;;2.70;;
21084;SDS011;34247;50.064;19.970;2022-07-25T06:02:49;9.05;;;3.67;;
21084;SDS011;34247;50.064;19.970;2022-07-25T06:03:53;6.43;;;3.10;;
21084;SDS011;34247;50.064;19.970;2022-07-25T06:04:57;5.10;;;2.88;;
21084;SDS011;34247;50.064;19.970;2022-07-25T06:06:02;4.80;;;3.00;;
21084;SDS011;34247;50.064;19.970;2022-07-25T06:07:06;6.68;;;3.22;;
21084;SDS011;34247;50.064;19.970;2022-07-25T06:08:12;4.32;;;2.10;;
21084;SDS011;34247;50.064;19.970;2022-07-25T06:09:19;11.70;;;3.05;;
21084;SDS011;34247;50.064;19.970;2022-07-25T06:10:24;7.57;;;2.60;;
21084;SDS011;34247;50.064;19.970;2022-07-25T06:11:28;3.80;;;2.83;;
21084;SDS011;34247;50.064;19.970;2022-07-25T06:12:33;3.90;;;2.60;;
21084;SDS011;34247;50.064;19.970;2022-07-25T06:13:38;6.82;;;2.63;;
21084;SDS011;34247;50.064;19.970;2022-07-25T06:14:42;4.78;;;3.08;;
21084;SDS011;34247;50.064;19.970;2022-07-25T06:15:46;8.68;;;2.67;;
21084;SDS011;34247;50.064;19.970;2022-07-25T06:16:50;3.72;;;2.65;;
21084;SDS011;34247;50.064;19.970;2022-07-25T06:17:54;3.17;;;2.35;;
21084;SDS011;34247;50.064;19.970;2022-07-25T06:18:58;4.22;;;2.08;;
21084;SDS011;34247;50.064;19.970;2022-07-25T06:20:02;4.15;;;2.33;;
21084;SDS011;34247;50.064;19.970;2022-07-25T06:21:07;5.55;;;2.63;;
21084;SDS011;34247;50.064;19.970;2022-07-25T06:22:11;6.28;;;2.63;;